sensor_id;sensor_type;location;lat;lon;timestamp;temperature;humidity
22426;DHT22;11380;50.822;15.790;2023-09-18T00:00:39;14.20;1.00
22426;DHT22;11380;50.822;15.790;2023-09-18T00:05:52;13.90;1.00
22426;DHT22;11380;50.822;15.790;2023-09-18T00:11:00;13.90;1.00
22426;DHT22;11380;50.822;15.790;2023-09-18T00:16:07;13.80;1.00
22426;DHT22;11380;50.822;15.790;2023-09-18T00:21:14;13.70;1.00
22426;DHT22;11380;50.822;15.790;2023-09-18T00:26:22;13.70;1.00
22426;DHT22;11380;50.822;15.790;2023-09-18T00:31:29;13.70;1.00
22426;DHT22;11380;50.822;15.790;2023-09-18T00:36:36;13.70;1.00
22426;DHT22;11380;50.822;15.790;2023-09-18T00:41:43;13.90;1.00
22426;DHT22;11380;50.822;15.790;2023-09-18T00:46:52;13.90;1.00
22426;DHT22;11380;50.822;15.790;2023-09-18T00:52:02;13.90;1.00
22426;DHT22;11380;50.822;15.790;2023-09-18T00:57:10;13.80;1.00
22426;DHT22;11380;50.822;15.790;2023-09-18T01:02:17;13.80;1.00
22426;DHT22;11380;50.822;15.790;2023-09-18T01:07:26;13.90;1.00
22426;DHT22;11380;50.822;15.790;2023-09-18T01:12:46;14.00;1.00
22426;DHT22;11380;50.822;15.790;2023-09-18T01:17:56;13.70;1.00
22426;DHT22;11380;50.822;15.790;2023-09-18T01:23:03;13.40;1.00
22426;DHT22;11380;50.822;15.790;2023-09-18T01:28:10;13.50;1.00
22426;DHT22;11380;50.822;15.790;2023-09-18T01:33:19;13.60;1.00
22426;DHT22;11380;50.822;15.790;2023-09-18T01:38:27;13.60;1.00
22426;DHT22;11380;50.822;15.790;2023-09-18T01:43:36;13.40;1.00
22426;DHT22;11380;50.822;15.790;2023-09-18T01:48:47;13.40;1.00
22426;DHT22;11380;50.822;15.790;2023-09-18T01:53:56;13.20;1.00
22426;DHT22;11380;50.822;15.790;2023-09-18T01:59:02;13.50;1.00
22426;DHT22;11380;50.822;15.790;2023-09-18T02:04:10;13.60;1.00
22426;DHT22;11380;50.822;15.790;2023-09-18T02:09:18;13.30;1.00
22426;DHT22;11380;50.822;15.790;2023-09-18T02:14:24;13.30;1.00
22426;DHT22;11380;50.822;15.790;2023-09-18T02:19:31;13.30;1.00
22426;DHT22;11380;50.822;15.790;2023-09-18T02:24:37;13.40;1.00
22426;DHT22;11380;50.822;15.790;2023-09-18T02:29:44;13.60;1.00
22426;DHT22;11380;50.822;15.790;2023-09-18T02:34:51;13.40;1.00
22426;DHT22;11380;50.822;15.790;2023-09-18T02:39:58;13.30;1.00
22426;DHT22;11380;50.822;15.790;2023-09-18T02:45:05;13.20;1.00
22426;DHT22;11380;50.822;15.790;2023-09-18T02:50:14;13.40;1.00
22426;DHT22;11380;50.822;15.790;2023-09-18T02:55:23;13.60;1.00
22426;DHT22;11380;50.822;15.790;2023-09-18T03:00:31;13.60;1.00
22426;DHT22;11380;50.822;15.790;2023-09-18T03:05:39;13.60;1.00
22426;DHT22;11380;50.822;15.790;2023-09-18T03:10:46;13.60;1.00
22426;DHT22;11380;50.822;15.790;2023-09-18T03:15:53;13.50;45.70
22426;DHT22;11380;50.822;15.790;2023-09-18T03:21:01;13.70;99.90
22426;DHT22;11380;50.822;15.790;2023-09-18T03:26:10;13.80;1.00
22426;DHT22;11380;50.822;15.790;2023-09-18T03:31:17;13.70;1.00
22426;DHT22;11380;50.822;15.790;2023-09-18T03:36:24;13.50;1.00
22426;DHT22;11380;50.822;15.790;2023-09-18T03:41:31;13.60;1.00
22426;DHT22;11380;50.822;15.790;2023-09-18T03:46:39;13.40;1.00
22426;DHT22;11380;50.822;15.790;2023-09-18T03:51:46;13.60;1.00
22426;DHT22;11380;50.822;15.790;2023-09-18T03:56:52;13.60;1.00
22426;DHT22;11380;50.822;15.790;2023-09-18T04:02:00;13.60;1.00
22426;DHT22;11380;50.822;15.790;2023-09-18T04:07:08;13.40;1.00
22426;DHT22;11380;50.822;15.790;2023-09-18T04:12:16;13.50;1.00
22426;DHT22;11380;50.822;15.790;2023-09-18T04:17:24;13.50;1.00
22426;DHT22;11380;50.822;15.790;2023-09-18T04:22:31;13.30;1.00
22426;DHT22;11380;50.822;15.790;2023-09-18T04:27:39;13.20;2.90
22426;DHT22;11380;50.822;15.790;2023-09-18T04:32:46;13.10;48.80
22426;DHT22;11380;50.822;15.790;2023-09-18T04:37:55;13.20;14.10
22426;DHT22;11380;50.822;15.790;2023-09-18T04:43:02;13.30;1.00
22426;DHT22;11380;50.822;15.790;2023-09-18T04:48:10;13.10;1.00
22426;DHT22;11380;50.822;15.790;2023-09-18T04:53:16;13.00;62.50
22426;DHT22;11380;50.822;15.790;2023-09-18T04:58:24;13.20;21.60
22426;DHT22;11380;50.822;15.790;2023-09-18T05:03:33;13.40;1.00
22426;DHT22;11380;50.822;15.790;2023-09-18T05:08:40;13.40;1.00
22426;DHT22;11380;50.822;15.790;2023-09-18T05:13:48;13.70;1.00
22426;DHT22;11380;50.822;15.790;2023-09-18T05:18:55;13.60;1.00
22426;DHT22;11380;50.822;15.790;2023-09-18T05:24:03;13.60;4.00
22426;DHT22;11380;50.822;15.790;2023-09-18T05:29:11;13.70;99.90
22426;DHT22;11380;50.822;15.790;2023-09-18T05:34:17;13.90;99.90
22426;DHT22;11380;50.822;15.790;2023-09-18T05:39:24;14.20;99.90
22426;DHT22;11380;50.822;15.790;2023-09-18T05:44:30;14.70;99.90
22426;DHT22;11380;50.822;15.790;2023-09-18T05:49:38;15.30;99.90
22426;DHT22;11380;50.822;15.790;2023-09-18T05:54:45;15.80;99.90
22426;DHT22;11380;50.822;15.790;2023-09-18T05:59:52;16.00;99.90
22426;DHT22;11380;50.822;15.790;2023-09-18T06:05:03;16.00;99.90
22426;DHT22;11380;50.822;15.790;2023-09-18T06:10:10;16.70;54.20
22426;DHT22;11380;50.822;15.790;2023-09-18T06:15:17;17.70;1.00
22426;DHT22;11380;50.822;15.790;2023-09-18T06:20:24;16.80;1.00
22426;DHT22;11380;50.822;15.790;2023-09-18T06:25:31;16.80;1.00
22426;DHT22;11380;50.822;15.790;2023-09-18T06:30:38;17.10;1.00
22426;DHT22;11380;50.822;15.790;2023-09-18T06:35:47;17.70;1.00
22426;DHT22;11380;50.822;15.790;2023-09-18T06:40:54;17.80;1.00
22426;DHT22;11380;50.822;15.790;2023-09-18T06:46:01;18.00;1.00
22426;DHT22;11380;50.822;15.790;2023-09-18T06:51:08;18.90;1.00
22426;DHT22;11380;50.822;15.790;2023-09-18T06:56:15;19.50;1.00
22426;DHT22;11380;50.822;15.790;2023-09-18T07:01:23;19.80;1.00
22426;DHT22;11380;50.822;15.790;2023-09-18T07:06:32;20.40;1.00
22426;DHT22;11380;50.822;15.790;2023-09-18T07:11:39;20.70;1.00
22426;DHT22;11380;50.822;15.790;2023-09-18T07:16:47;20.90;99.90
22426;DHT22;11380;50.822;15.790;2023-09-18T07:21:53;21.10;99.90
22426;DHT22;11380;50.822;15.790;2023-09-18T07:27:00;21.50;1.00
22426;DHT22;11380;50.822;15.790;2023-09-18T07:32:09;21.60;1.00
22426;DHT22;11380;50.822;15.790;2023-09-18T07:37:17;21.60;1.00
22426;DHT22;11380;50.822;15.790;2023-09-18T07:42:26;22.10;99.90
22426;DHT22;11380;50.822;15.790;2023-09-18T07:47:33;22.40;1.00
22426;DHT22;11380;50.822;15.790;2023-09-18T07:52:39;22.60;32.30
22426;DHT22;11380;50.822;15.790;2023-09-18T07:57:46;22.70;1.00
22426;DHT22;11380;50.822;15.790;2023-09-18T08:02:55;22.90;24.90
22426;DHT22;11380;50.822;15.790;2023-09-18T08:08:05;23.10;1.00
22426;DHT22;11380;50.822;15.790;2023-09-18T08:13:13;23.60;1.00
22426;DHT22;11380;50.822;15.790;2023-09-18T08:18:20;24.00;1.00
22426;DHT22;11380;50.822;15.790;2023-09-18T08:23:27;24.40;1.00
22426;DHT22;11380;50.822;15.790;2023-09-18T08:28:34;24.30;99.90
22426;DHT22;11380;50.822;15.790;2023-09-18T08:33:43;24.40;99.90
22426;DHT22;11380;50.822;15.790;2023-09-18T08:38:50;24.80;99.90
22426;DHT22;11380;50.822;15.790;2023-09-18T08:44:04;25.10;99.90
22426;DHT22;11380;50.822;15.790;2023-09-18T08:49:09;25.20;1.00
22426;DHT22;11380;50.822;15.790;2023-09-18T08:54:17;24.90;1.00
22426;DHT22;11380;50.822;15.790;2023-09-18T08:59:25;25.20;1.00
22426;DHT22;11380;50.822;15.790;2023-09-18T09:04:33;25.40;1.00
22426;DHT22;11380;50.822;15.790;2023-09-18T09:09:40;24.80;1.00
22426;DHT22;11380;50.822;15.790;2023-09-18T09:15:03;25.10;1.00
22426;DHT22;11380;50.822;15.790;2023-09-18T09:20:13;25.20;95.90
22426;DHT22;11380;50.822;15.790;2023-09-18T09:25:22;25.80;1.00
22426;DHT22;11380;50.822;15.790;2023-09-18T09:30:35;25.90;99.90
22426;DHT22;11380;50.822;15.790;2023-09-18T09:35:42;25.70;1.00
22426;DHT22;11380;50.822;15.790;2023-09-18T09:40:48;26.20;99.90
22426;DHT22;11380;50.822;15.790;2023-09-18T09:46:02;26.10;99.90
22426;DHT22;11380;50.822;15.790;2023-09-18T09:51:11;26.20;1.00
22426;DHT22;11380;50.822;15.790;2023-09-18T09:56:41;26.00;99.90
22426;DHT22;11380;50.822;15.790;2023-09-18T10:01:49;26.10;1.00
22426;DHT22;11380;50.822;15.790;2023-09-18T10:07:05;26.20;99.90
22426;DHT22;11380;50.822;15.790;2023-09-18T10:12:11;26.50;1.00
22426;DHT22;11380;50.822;15.790;2023-09-18T10:17:20;26.60;1.00
22426;DHT22;11380;50.822;15.790;2023-09-18T10:22:32;26.40;99.90
22426;DHT22;11380;50.822;15.790;2023-09-18T10:27:48;26.30;99.90
22426;DHT22;11380;50.822;15.790;2023-09-18T10:32:53;26.40;1.00
22426;DHT22;11380;50.822;15.790;2023-09-18T10:38:02;26.30;99.90
22426;DHT22;11380;50.822;15.790;2023-09-18T10:43:12;26.60;1.00
22426;DHT22;11380;50.822;15.790;2023-09-18T10:48:24;26.70;1.00
22426;DHT22;11380;50.822;15.790;2023-09-18T10:53:32;26.60;99.90
22426;DHT22;11380;50.822;15.790;2023-09-18T10:58:39;26.80;1.00
22426;DHT22;11380;50.822;15.790;2023-09-18T11:03:46;26.50;1.00
22426;DHT22;11380;50.822;15.790;2023-09-18T11:09:04;26.50;51.40
22426;DHT22;11380;50.822;15.790;2023-09-18T11:14:14;26.80;1.00
22426;DHT22;11380;50.822;15.790;2023-09-18T11:19:21;26.20;1.00
22426;DHT22;11380;50.822;15.790;2023-09-18T11:24:29;26.90;99.90
22426;DHT22;11380;50.822;15.790;2023-09-18T11:29:37;26.90;1.00
22426;DHT22;11380;50.822;15.790;2023-09-18T11:34:44;26.50;40.40
22426;DHT22;11380;50.822;15.790;2023-09-18T11:39:53;26.20;99.90
22426;DHT22;11380;50.822;15.790;2023-09-18T11:45:02;26.10;99.90
22426;DHT22;11380;50.822;15.790;2023-09-18T11:50:10;25.90;1.00
22426;DHT22;11380;50.822;15.790;2023-09-18T11:55:19;25.60;99.90
22426;DHT22;11380;50.822;15.790;2023-09-18T12:00:25;25.70;1.00
22426;DHT22;11380;50.822;15.790;2023-09-18T12:05:34;25.20;1.00
22426;DHT22;11380;50.822;15.790;2023-09-18T12:10:41;25.40;1.00
22426;DHT22;11380;50.822;15.790;2023-09-18T12:15:49;26.00;25.10
22426;DHT22;11380;50.822;15.790;2023-09-18T12:20:57;26.40;1.00
22426;DHT22;11380;50.822;15.790;2023-09-18T12:26:06;26.20;1.00
22426;DHT22;11380;50.822;15.790;2023-09-18T12:31:14;26.20;1.00
22426;DHT22;11380;50.822;15.790;2023-09-18T12:36:24;26.00;17.00
22426;DHT22;11380;50.822;15.790;2023-09-18T12:41:30;26.10;1.00
22426;DHT22;11380;50.822;15.790;2023-09-18T12:46:38;26.20;3.40
22426;DHT22;11380;50.822;15.790;2023-09-18T12:51:59;26.10;1.00
22426;DHT22;11380;50.822;15.790;2023-09-18T12:57:10;26.00;1.00
22426;DHT22;11380;50.822;15.790;2023-09-18T13:02:18;26.40;44.60
22426;DHT22;11380;50.822;15.790;2023-09-18T13:07:25;26.70;99.90
22426;DHT22;11380;50.822;15.790;2023-09-18T13:12:46;26.90;99.90
22426;DHT22;11380;50.822;15.790;2023-09-18T13:17:59;26.90;1.00
22426;DHT22;11380;50.822;15.790;2023-09-18T13:23:09;26.30;1.00
22426;DHT22;11380;50.822;15.790;2023-09-18T13:28:15;25.90;1.00
22426;DHT22;11380;50.822;15.790;2023-09-18T13:33:25;25.60;1.00
22426;DHT22;11380;50.822;15.790;2023-09-18T13:38:31;25.40;1.00
22426;DHT22;11380;50.822;15.790;2023-09-18T13:43:38;26.00;1.00
22426;DHT22;11380;50.822;15.790;2023-09-18T13:48:46;26.20;1.00
22426;DHT22;11380;50.822;15.790;2023-09-18T13:53:53;26.20;1.00
22426;DHT22;11380;50.822;15.790;2023-09-18T13:59:02;26.70;1.00
22426;DHT22;11380;50.822;15.790;2023-09-18T14:04:09;26.70;1.00
22426;DHT22;11380;50.822;15.790;2023-09-18T14:09:16;26.80;1.00
22426;DHT22;11380;50.822;15.790;2023-09-18T14:14:24;26.80;1.00
22426;DHT22;11380;50.822;15.790;2023-09-18T14:19:32;26.60;1.00
22426;DHT22;11380;50.822;15.790;2023-09-18T14:24:40;26.50;1.00
22426;DHT22;11380;50.822;15.790;2023-09-18T14:29:47;26.40;1.00
22426;DHT22;11380;50.822;15.790;2023-09-18T14:34:53;26.00;1.00
22426;DHT22;11380;50.822;15.790;2023-09-18T14:40:00;25.50;1.00
22426;DHT22;11380;50.822;15.790;2023-09-18T14:45:08;25.40;1.00
22426;DHT22;11380;50.822;15.790;2023-09-18T14:50:19;25.10;1.00
22426;DHT22;11380;50.822;15.790;2023-09-18T14:55:26;25.20;1.00
22426;DHT22;11380;50.822;15.790;2023-09-18T15:00:33;25.30;1.00
22426;DHT22;11380;50.822;15.790;2023-09-18T15:05:40;25.40;1.00
22426;DHT22;11380;50.822;15.790;2023-09-18T15:10:48;25.40;1.00
22426;DHT22;11380;50.822;15.790;2023-09-18T15:15:55;25.30;1.00
22426;DHT22;11380;50.822;15.790;2023-09-18T15:21:02;25.10;1.00
22426;DHT22;11380;50.822;15.790;2023-09-18T15:26:10;25.00;1.00
22426;DHT22;11380;50.822;15.790;2023-09-18T15:31:17;25.00;1.00
22426;DHT22;11380;50.822;15.790;2023-09-18T15:36:25;24.80;99.90
22426;DHT22;11380;50.822;15.790;2023-09-18T15:41:33;24.50;1.00
22426;DHT22;11380;50.822;15.790;2023-09-18T15:46:41;24.40;99.90
22426;DHT22;11380;50.822;15.790;2023-09-18T15:51:50;24.10;99.90
22426;DHT22;11380;50.822;15.790;2023-09-18T15:56:57;24.20;99.90
22426;DHT22;11380;50.822;15.790;2023-09-18T16:02:05;24.30;99.90
22426;DHT22;11380;50.822;15.790;2023-09-18T16:07:13;24.10;99.90
22426;DHT22;11380;50.822;15.790;2023-09-18T16:12:24;24.10;99.90
22426;DHT22;11380;50.822;15.790;2023-09-18T16:17:32;24.10;99.90
22426;DHT22;11380;50.822;15.790;2023-09-18T16:22:39;23.90;99.90
22426;DHT22;11380;50.822;15.790;2023-09-18T16:27:48;23.80;99.90
22426;DHT22;11380;50.822;15.790;2023-09-18T16:32:56;23.70;1.00
22426;DHT22;11380;50.822;15.790;2023-09-18T16:38:04;23.70;99.90
22426;DHT22;11380;50.822;15.790;2023-09-18T16:43:11;23.60;99.90
22426;DHT22;11380;50.822;15.790;2023-09-18T16:48:19;23.60;1.00
22426;DHT22;11380;50.822;15.790;2023-09-18T16:53:26;23.60;1.00
22426;DHT22;11380;50.822;15.790;2023-09-18T16:58:34;23.50;1.00
22426;DHT22;11380;50.822;15.790;2023-09-18T17:03:41;23.60;1.00
22426;DHT22;11380;50.822;15.790;2023-09-18T17:08:50;23.50;1.00
22426;DHT22;11380;50.822;15.790;2023-09-18T17:13:57;23.40;1.00
22426;DHT22;11380;50.822;15.790;2023-09-18T17:19:06;23.30;1.00
22426;DHT22;11380;50.822;15.790;2023-09-18T17:24:15;23.30;1.00
22426;DHT22;11380;50.822;15.790;2023-09-18T17:29:24;23.20;1.00
22426;DHT22;11380;50.822;15.790;2023-09-18T17:34:32;23.20;1.00
22426;DHT22;11380;50.822;15.790;2023-09-18T17:39:39;23.30;1.00
22426;DHT22;11380;50.822;15.790;2023-09-18T17:44:46;23.30;99.10
22426;DHT22;11380;50.822;15.790;2023-09-18T17:49:52;23.30;1.00
22426;DHT22;11380;50.822;15.790;2023-09-18T17:54:59;23.10;99.90
22426;DHT22;11380;50.822;15.790;2023-09-18T18:00:09;22.70;1.00
22426;DHT22;11380;50.822;15.790;2023-09-18T18:05:19;22.60;1.00
22426;DHT22;11380;50.822;15.790;2023-09-18T18:10:27;22.50;1.00
22426;DHT22;11380;50.822;15.790;2023-09-18T18:15:37;22.50;1.00
22426;DHT22;11380;50.822;15.790;2023-09-18T18:20:44;22.60;1.00
22426;DHT22;11380;50.822;15.790;2023-09-18T18:25:52;22.50;1.00
22426;DHT22;11380;50.822;15.790;2023-09-18T18:30:59;22.60;1.00
22426;DHT22;11380;50.822;15.790;2023-09-18T18:36:06;22.60;1.00
22426;DHT22;11380;50.822;15.790;2023-09-18T18:41:17;22.40;1.00
22426;DHT22;11380;50.822;15.790;2023-09-18T18:46:24;22.50;1.00
22426;DHT22;11380;50.822;15.790;2023-09-18T18:51:33;21.90;1.00
22426;DHT22;11380;50.822;15.790;2023-09-18T18:56:42;22.10;1.00
22426;DHT22;11380;50.822;15.790;2023-09-18T19:01:49;22.00;1.00
22426;DHT22;11380;50.822;15.790;2023-09-18T19:06:59;22.20;1.00
22426;DHT22;11380;50.822;15.790;2023-09-18T19:12:06;22.20;1.00
22426;DHT22;11380;50.822;15.790;2023-09-18T19:17:13;22.30;1.00
22426;DHT22;11380;50.822;15.790;2023-09-18T19:22:20;22.40;1.00
22426;DHT22;11380;50.822;15.790;2023-09-18T19:27:27;22.40;1.00
22426;DHT22;11380;50.822;15.790;2023-09-18T19:32:37;22.40;1.00
22426;DHT22;11380;50.822;15.790;2023-09-18T19:37:47;22.10;1.00
22426;DHT22;11380;50.822;15.790;2023-09-18T19:42:55;22.20;13.40
22426;DHT22;11380;50.822;15.790;2023-09-18T19:48:05;22.00;99.90
22426;DHT22;11380;50.822;15.790;2023-09-18T19:53:13;21.80;99.90
22426;DHT22;11380;50.822;15.790;2023-09-18T19:58:21;21.80;99.90
22426;DHT22;11380;50.822;15.790;2023-09-18T20:03:29;21.70;99.90
22426;DHT22;11380;50.822;15.790;2023-09-18T20:08:36;21.50;99.90
22426;DHT22;11380;50.822;15.790;2023-09-18T20:13:44;20.40;1.00
22426;DHT22;11380;50.822;15.790;2023-09-18T20:18:52;19.60;1.00
22426;DHT22;11380;50.822;15.790;2023-09-18T20:23:59;19.30;1.00
22426;DHT22;11380;50.822;15.790;2023-09-18T20:29:06;19.50;1.00
22426;DHT22;11380;50.822;15.790;2023-09-18T20:34:13;19.40;1.00
22426;DHT22;11380;50.822;15.790;2023-09-18T20:39:20;19.40;1.00
22426;DHT22;11380;50.822;15.790;2023-09-18T20:44:29;19.30;1.00
22426;DHT22;11380;50.822;15.790;2023-09-18T20:49:37;19.10;1.00
22426;DHT22;11380;50.822;15.790;2023-09-18T20:54:45;19.30;1.00
22426;DHT22;11380;50.822;15.790;2023-09-18T20:59:52;18.80;1.00
22426;DHT22;11380;50.822;15.790;2023-09-18T21:04:59;18.50;99.90
22426;DHT22;11380;50.822;15.790;2023-09-18T21:10:09;18.70;99.90
22426;DHT22;11380;50.822;15.790;2023-09-18T21:15:16;18.70;99.90
22426;DHT22;11380;50.822;15.790;2023-09-18T21:20:24;18.80;99.90
22426;DHT22;11380;50.822;15.790;2023-09-18T21:25:32;18.80;50.70
22426;DHT22;11380;50.822;15.790;2023-09-18T21:30:39;18.80;28.40
22426;DHT22;11380;50.822;15.790;2023-09-18T21:35:46;18.90;3.80
22426;DHT22;11380;50.822;15.790;2023-09-18T21:40:53;18.90;9.60
22426;DHT22;11380;50.822;15.790;2023-09-18T21:46:02;19.00;1.00
22426;DHT22;11380;50.822;15.790;2023-09-18T21:51:10;18.80;4.20
22426;DHT22;11380;50.822;15.790;2023-09-18T21:56:18;18.90;1.00
22426;DHT22;11380;50.822;15.790;2023-09-18T22:01:26;18.60;99.90
22426;DHT22;11380;50.822;15.790;2023-09-18T22:06:34;18.70;99.90
22426;DHT22;11380;50.822;15.790;2023-09-18T22:11:41;18.80;99.90
22426;DHT22;11380;50.822;15.790;2023-09-18T22:16:49;18.90;64.30
22426;DHT22;11380;50.822;15.790;2023-09-18T22:21:56;18.70;23.80
22426;DHT22;11380;50.822;15.790;2023-09-18T22:27:04;18.90;22.30
22426;DHT22;11380;50.822;15.790;2023-09-18T22:32:12;18.60;13.90
22426;DHT22;11380;50.822;15.790;2023-09-18T22:37:19;18.70;1.00
22426;DHT22;11380;50.822;15.790;2023-09-18T22:54:44;18.60;1.00
22426;DHT22;11380;50.822;15.790;2023-09-18T22:59:42;18.50;1.00
22426;DHT22;11380;50.822;15.790;2023-09-18T23:04:50;18.40;48.60
22426;DHT22;11380;50.822;15.790;2023-09-18T23:09:59;18.40;99.90
22426;DHT22;11380;50.822;15.790;2023-09-18T23:15:07;18.50;13.40
22426;DHT22;11380;50.822;15.790;2023-09-18T23:20:17;18.40;14.00
22426;DHT22;11380;50.822;15.790;2023-09-18T23:25:25;18.40;3.50
22426;DHT22;11380;50.822;15.790;2023-09-18T23:30:34;18.10;99.90
22426;DHT22;11380;50.822;15.790;2023-09-18T23:35:42;18.20;99.90
22426;DHT22;11380;50.822;15.790;2023-09-18T23:40:50;18.00;99.90
22426;DHT22;11380;50.822;15.790;2023-09-18T23:45:58;17.90;99.90
22426;DHT22;11380;50.822;15.790;2023-09-18T23:51:07;18.00;99.90
22426;DHT22;11380;50.822;15.790;2023-09-18T23:56:14;18.00;99.90
